sensor_id;sensor_type;location;lat;lon;timestamp;temperature;humidity
38936;DHT22;25541;47.458;9.644;2022-10-16T04:03:00;15.00;99.90
38936;DHT22;25541;47.458;9.644;2022-10-16T04:05:26;15.00;99.80
38936;DHT22;25541;47.458;9.644;2022-10-16T04:07:52;15.00;99.90
38936;DHT22;25541;47.458;9.644;2022-10-16T04:10:18;15.00;99.70
38936;DHT22;25541;47.458;9.644;2022-10-16T04:12:44;15.00;99.50
38936;DHT22;25541;47.458;9.644;2022-10-16T04:15:10;15.00;99.80
38936;DHT22;25541;47.458;9.644;2022-10-16T04:17:36;15.00;99.60
38936;DHT22;25541;47.458;9.644;2022-10-16T04:20:02;15.00;99.30
38936;DHT22;25541;47.458;9.644;2022-10-16T04:22:28;15.00;98.80
38936;DHT22;25541;47.458;9.644;2022-10-16T04:24:53;15.10;98.30
38936;DHT22;25541;47.458;9.644;2022-10-16T04:27:19;15.10;98.30
38936;DHT22;25541;47.458;9.644;2022-10-16T04:29:45;15.20;97.60
38936;DHT22;25541;47.458;9.644;2022-10-16T04:32:10;15.10;98.00
38936;DHT22;25541;47.458;9.644;2022-10-16T04:34:36;15.10;99.30
38936;DHT22;25541;47.458;9.644;2022-10-16T04:37:04;15.00;99.90
38936;DHT22;25541;47.458;9.644;2022-10-16T04:39:30;14.90;99.90
38936;DHT22;25541;47.458;9.644;2022-10-16T04:41:56;14.90;99.90
38936;DHT22;25541;47.458;9.644;2022-10-16T04:44:22;14.70;99.90
38936;DHT22;25541;47.458;9.644;2022-10-16T04:46:50;14.60;99.90
38936;DHT22;25541;47.458;9.644;2022-10-16T04:49:16;14.60;99.90
38936;DHT22;25541;47.458;9.644;2022-10-16T04:51:42;14.60;99.90
38936;DHT22;25541;47.458;9.644;2022-10-16T04:54:09;14.60;99.90
38936;DHT22;25541;47.458;9.644;2022-10-16T04:56:35;14.60;99.90
38936;DHT22;25541;47.458;9.644;2022-10-16T04:59:08;14.40;99.90
38936;DHT22;25541;47.458;9.644;2022-10-16T05:01:34;14.50;99.90
38936;DHT22;25541;47.458;9.644;2022-10-16T05:04:00;14.50;99.90
38936;DHT22;25541;47.458;9.644;2022-10-16T05:06:26;14.20;99.90
38936;DHT22;25541;47.458;9.644;2022-10-16T05:08:52;14.20;99.90
38936;DHT22;25541;47.458;9.644;2022-10-16T05:11:18;14.20;99.90
38936;DHT22;25541;47.458;9.644;2022-10-16T05:13:43;14.30;99.90
38936;DHT22;25541;47.458;9.644;2022-10-16T05:16:09;14.40;99.90
38936;DHT22;25541;47.458;9.644;2022-10-16T05:18:35;14.40;99.90
38936;DHT22;25541;47.458;9.644;2022-10-16T05:21:00;14.30;99.90
38936;DHT22;25541;47.458;9.644;2022-10-16T05:23:26;14.40;99.90
38936;DHT22;25541;47.458;9.644;2022-10-16T05:25:53;14.50;99.90
38936;DHT22;25541;47.458;9.644;2022-10-16T05:28:20;14.50;99.90
38936;DHT22;25541;47.458;9.644;2022-10-16T05:30:45;14.40;99.90
38936;DHT22;25541;47.458;9.644;2022-10-16T05:33:11;14.50;99.90
38936;DHT22;25541;47.458;9.644;2022-10-16T05:35:37;14.40;99.90
38936;DHT22;25541;47.458;9.644;2022-10-16T05:38:02;14.30;99.90
38936;DHT22;25541;47.458;9.644;2022-10-16T05:40:28;14.30;99.90
38936;DHT22;25541;47.458;9.644;2022-10-16T05:42:57;14.40;99.90
38936;DHT22;25541;47.458;9.644;2022-10-16T05:45:22;14.50;99.90
38936;DHT22;25541;47.458;9.644;2022-10-16T05:47:48;14.40;99.90
38936;DHT22;25541;47.458;9.644;2022-10-16T05:50:14;14.20;99.90
38936;DHT22;25541;47.458;9.644;2022-10-16T05:52:40;14.10;99.90
38936;DHT22;25541;47.458;9.644;2022-10-16T05:55:05;14.20;99.90
38936;DHT22;25541;47.458;9.644;2022-10-16T05:57:31;14.10;99.90
38936;DHT22;25541;47.458;9.644;2022-10-16T05:59:57;14.20;99.90
38936;DHT22;25541;47.458;9.644;2022-10-16T06:02:22;14.20;99.90
38936;DHT22;25541;47.458;9.644;2022-10-16T06:04:48;14.20;99.90
38936;DHT22;25541;47.458;9.644;2022-10-16T06:07:14;14.30;99.90
38936;DHT22;25541;47.458;9.644;2022-10-16T06:09:40;14.50;99.90
38936;DHT22;25541;47.458;9.644;2022-10-16T06:12:05;15.10;99.90
38936;DHT22;25541;47.458;9.644;2022-10-16T06:14:31;15.30;99.90
38936;DHT22;25541;47.458;9.644;2022-10-16T06:16:57;15.30;99.90
38936;DHT22;25541;47.458;9.644;2022-10-16T06:19:23;15.10;99.90
38936;DHT22;25541;47.458;9.644;2022-10-16T06:21:48;15.00;99.90
38936;DHT22;25541;47.458;9.644;2022-10-16T06:24:14;14.70;99.90
38936;DHT22;25541;47.458;9.644;2022-10-16T06:26:40;14.50;99.90
38936;DHT22;25541;47.458;9.644;2022-10-16T06:29:05;14.40;99.90
38936;DHT22;25541;47.458;9.644;2022-10-16T06:31:31;14.40;99.90
38936;DHT22;25541;47.458;9.644;2022-10-16T06:33:59;14.50;99.90
38936;DHT22;25541;47.458;9.644;2022-10-16T06:36:25;14.80;99.90
38936;DHT22;25541;47.458;9.644;2022-10-16T06:38:51;15.10;99.90
38936;DHT22;25541;47.458;9.644;2022-10-16T06:41:19;15.30;99.40
38936;DHT22;25541;47.458;9.644;2022-10-16T06:43:46;15.50;98.00
38936;DHT22;25541;47.458;9.644;2022-10-16T06:46:13;15.60;97.60
38936;DHT22;25541;47.458;9.644;2022-10-16T06:48:39;15.80;96.40
38936;DHT22;25541;47.458;9.644;2022-10-16T06:51:22;15.90;97.80
38936;DHT22;25541;47.458;9.644;2022-10-16T06:53:53;16.10;98.00
38936;DHT22;25541;47.458;9.644;2022-10-16T06:56:20;16.20;98.60
38936;DHT22;25541;47.458;9.644;2022-10-16T06:58:47;16.30;97.80
38936;DHT22;25541;47.458;9.644;2022-10-16T07:01:14;16.40;97.40
38936;DHT22;25541;47.458;9.644;2022-10-16T07:03:42;16.90;97.30
38936;DHT22;25541;47.458;9.644;2022-10-16T07:06:10;17.30;94.10
38936;DHT22;25541;47.458;9.644;2022-10-16T07:08:38;17.60;94.00
38936;DHT22;25541;47.458;9.644;2022-10-16T07:11:06;18.90;93.90
38936;DHT22;25541;47.458;9.644;2022-10-16T07:13:40;21.00;89.40
38936;DHT22;25541;47.458;9.644;2022-10-16T07:16:08;21.50;83.20
38936;DHT22;25541;47.458;9.644;2022-10-16T07:18:34;21.10;76.20
38936;DHT22;25541;47.458;9.644;2022-10-16T07:23:30;20.40;74.00
38936;DHT22;25541;47.458;9.644;2022-10-16T07:25:56;21.20;72.30
38936;DHT22;25541;47.458;9.644;2022-10-16T07:28:21;22.10;71.90
38936;DHT22;25541;47.458;9.644;2022-10-16T07:30:48;22.40;66.50
38936;DHT22;25541;47.458;9.644;2022-10-16T07:33:21;22.80;65.20
38936;DHT22;25541;47.458;9.644;2022-10-16T07:35:51;23.70;65.20
38936;DHT22;25541;47.458;9.644;2022-10-16T07:38:18;24.10;61.10
38936;DHT22;25541;47.458;9.644;2022-10-16T07:40:45;26.60;61.20
38936;DHT22;25541;47.458;9.644;2022-10-16T07:43:10;29.90;57.50
38936;DHT22;25541;47.458;9.644;2022-10-16T07:45:36;33.10;48.50
38936;DHT22;25541;47.458;9.644;2022-10-16T07:48:02;34.10;46.00
38936;DHT22;25541;47.458;9.644;2022-10-16T07:50:27;33.80;45.20
38936;DHT22;25541;47.458;9.644;2022-10-16T07:52:53;34.40;43.00
38936;DHT22;25541;47.458;9.644;2022-10-16T07:55:19;32.80;43.10
38936;DHT22;25541;47.458;9.644;2022-10-16T07:57:44;30.50;46.00
38936;DHT22;25541;47.458;9.644;2022-10-16T08:00:10;27.30;49.10
38936;DHT22;25541;47.458;9.644;2022-10-16T08:02:39;25.30;53.70
38936;DHT22;25541;47.458;9.644;2022-10-16T08:05:06;24.30;55.60
38936;DHT22;25541;47.458;9.644;2022-10-16T08:07:32;23.80;57.00
38936;DHT22;25541;47.458;9.644;2022-10-16T08:09:57;23.30;57.40
38936;DHT22;25541;47.458;9.644;2022-10-16T08:12:26;22.90;58.90
38936;DHT22;25541;47.458;9.644;2022-10-16T08:14:52;22.40;64.20
38936;DHT22;25541;47.458;9.644;2022-10-16T08:17:17;22.40;68.60
38936;DHT22;25541;47.458;9.644;2022-10-16T08:19:46;22.10;73.10
38936;DHT22;25541;47.458;9.644;2022-10-16T08:22:13;22.50;73.00
38936;DHT22;25541;47.458;9.644;2022-10-16T08:24:39;23.70;70.80
38936;DHT22;25541;47.458;9.644;2022-10-16T08:27:04;25.40;67.10
38936;DHT22;25541;47.458;9.644;2022-10-16T08:29:30;26.20;62.60
38936;DHT22;25541;47.458;9.644;2022-10-16T08:31:56;26.00;61.80
38936;DHT22;25541;47.458;9.644;2022-10-16T08:34:22;25.40;63.00
38936;DHT22;25541;47.458;9.644;2022-10-16T08:36:47;24.50;64.40
38936;DHT22;25541;47.458;9.644;2022-10-16T08:39:13;23.30;64.30
38936;DHT22;25541;47.458;9.644;2022-10-16T08:47:22;32.70;47.00
38936;DHT22;25541;47.458;9.644;2022-10-16T08:50:09;36.40;41.10
38936;DHT22;25541;47.458;9.644;2022-10-16T08:52:39;39.90;40.00
38936;DHT22;25541;47.458;9.644;2022-10-16T08:55:06;41.80;38.00
38936;DHT22;25541;47.458;9.644;2022-10-16T08:57:32;42.40;36.50
38936;DHT22;25541;47.458;9.644;2022-10-16T09:00:11;42.30;35.00
38936;DHT22;25541;47.458;9.644;2022-10-16T09:02:40;41.90;35.70
38936;DHT22;25541;47.458;9.644;2022-10-16T09:08:06;43.40;32.80
38936;DHT22;25541;47.458;9.644;2022-10-16T09:13:17;44.30;29.50
38936;DHT22;25541;47.458;9.644;2022-10-16T09:18:31;43.90;29.20
38936;DHT22;25541;47.458;9.644;2022-10-16T09:21:16;43.70;30.00
38936;DHT22;25541;47.458;9.644;2022-10-16T09:23:43;43.90;31.10
38936;DHT22;25541;47.458;9.644;2022-10-16T09:26:14;43.20;33.00
38936;DHT22;25541;47.458;9.644;2022-10-16T09:28:40;44.20;33.10
38936;DHT22;25541;47.458;9.644;2022-10-16T09:31:18;45.00;32.10
38936;DHT22;25541;47.458;9.644;2022-10-16T09:33:47;46.40;30.30
38936;DHT22;25541;47.458;9.644;2022-10-16T09:36:14;46.90;30.30
38936;DHT22;25541;47.458;9.644;2022-10-16T09:38:40;47.20;30.30
38936;DHT22;25541;47.458;9.644;2022-10-16T09:41:19;47.20;30.60
38936;DHT22;25541;47.458;9.644;2022-10-16T09:43:59;45.60;31.80
38936;DHT22;25541;47.458;9.644;2022-10-16T09:48:59;45.80;32.50
38936;DHT22;25541;47.458;9.644;2022-10-16T09:51:33;43.80;33.90
38936;DHT22;25541;47.458;9.644;2022-10-16T09:56:37;44.30;32.80
38936;DHT22;25541;47.458;9.644;2022-10-16T09:59:19;44.80;33.10
38936;DHT22;25541;47.458;9.644;2022-10-16T10:01:51;42.80;34.70
38936;DHT22;25541;47.458;9.644;2022-10-16T10:04:20;42.60;34.90
38936;DHT22;25541;47.458;9.644;2022-10-16T10:06:46;43.70;33.70
38936;DHT22;25541;47.458;9.644;2022-10-16T10:09:20;43.80;33.40
38936;DHT22;25541;47.458;9.644;2022-10-16T10:11:57;43.20;34.00
38936;DHT22;25541;47.458;9.644;2022-10-16T10:14:27;43.90;32.70
38936;DHT22;25541;47.458;9.644;2022-10-16T10:17:10;43.20;33.40
38936;DHT22;25541;47.458;9.644;2022-10-16T10:19:44;42.80;34.00
38936;DHT22;25541;47.458;9.644;2022-10-16T10:22:41;40.60;35.00
38936;DHT22;25541;47.458;9.644;2022-10-16T10:38:09;27.50;56.60
38936;DHT22;25541;47.458;9.644;2022-10-16T10:49:15;24.10;65.80
38936;DHT22;25541;47.458;9.644;2022-10-16T10:55:13;23.80;65.00
38936;DHT22;25541;47.458;9.644;2022-10-16T10:58:01;24.00;66.30
38936;DHT22;25541;47.458;9.644;2022-10-16T11:06:11;23.50;69.60
38936;DHT22;25541;47.458;9.644;2022-10-16T11:08:46;23.10;71.80
38936;DHT22;25541;47.458;9.644;2022-10-16T11:11:25;22.90;73.80
38936;DHT22;25541;47.458;9.644;2022-10-16T11:16:43;22.70;75.20
38936;DHT22;25541;47.458;9.644;2022-10-16T11:19:36;22.50;75.90
38936;DHT22;25541;47.458;9.644;2022-10-16T11:22:07;22.50;76.10
38936;DHT22;25541;47.458;9.644;2022-10-16T11:27:37;22.30;76.50
38936;DHT22;25541;47.458;9.644;2022-10-16T11:30:18;22.10;76.90
38936;DHT22;25541;47.458;9.644;2022-10-16T11:32:52;22.10;76.20
38936;DHT22;25541;47.458;9.644;2022-10-16T11:35:54;22.00;76.50
38936;DHT22;25541;47.458;9.644;2022-10-16T11:38:23;21.90;76.70
38936;DHT22;25541;47.458;9.644;2022-10-16T11:40:54;22.20;76.00
38936;DHT22;25541;47.458;9.644;2022-10-16T11:43:34;22.40;75.30
38936;DHT22;25541;47.458;9.644;2022-10-16T11:46:21;22.30;75.20
38936;DHT22;25541;47.458;9.644;2022-10-16T11:49:03;22.30;75.90
38936;DHT22;25541;47.458;9.644;2022-10-16T11:56:42;21.90;76.30
38936;DHT22;25541;47.458;9.644;2022-10-16T12:02:25;21.90;77.10
38936;DHT22;25541;47.458;9.644;2022-10-16T12:05:06;22.10;76.10
38936;DHT22;25541;47.458;9.644;2022-10-16T12:07:46;22.20;76.20
38936;DHT22;25541;47.458;9.644;2022-10-16T12:10:28;22.20;76.20
38936;DHT22;25541;47.458;9.644;2022-10-16T12:12:54;21.90;76.80
38936;DHT22;25541;47.458;9.644;2022-10-16T12:15:27;22.00;76.50
38936;DHT22;25541;47.458;9.644;2022-10-16T12:17:54;22.00;75.90
38936;DHT22;25541;47.458;9.644;2022-10-16T12:20:26;22.00;75.40
38936;DHT22;25541;47.458;9.644;2022-10-16T12:22:53;22.10;75.50
38936;DHT22;25541;47.458;9.644;2022-10-16T12:25:31;22.30;75.70
38936;DHT22;25541;47.458;9.644;2022-10-16T12:28:01;22.30;74.80
38936;DHT22;25541;47.458;9.644;2022-10-16T12:30:30;22.20;75.30
38936;DHT22;25541;47.458;9.644;2022-10-16T12:33:05;22.10;76.60
38936;DHT22;25541;47.458;9.644;2022-10-16T12:35:35;22.00;76.30
38936;DHT22;25541;47.458;9.644;2022-10-16T12:41:10;21.70;76.40
38936;DHT22;25541;47.458;9.644;2022-10-16T12:43:42;21.70;77.30
38936;DHT22;25541;47.458;9.644;2022-10-16T12:48:34;21.60;76.70
38936;DHT22;25541;47.458;9.644;2022-10-16T13:08:29;21.60;77.70
38936;DHT22;25541;47.458;9.644;2022-10-16T13:10:47;21.60;77.10
38936;DHT22;25541;47.458;9.644;2022-10-16T13:13:50;21.60;85.10
38936;DHT22;25541;47.458;9.644;2022-10-16T13:16:56;21.80;77.20
38936;DHT22;25541;47.458;9.644;2022-10-16T13:22:45;21.70;77.70
38936;DHT22;25541;47.458;9.644;2022-10-16T13:28:03;21.60;80.40
38936;DHT22;25541;47.458;9.644;2022-10-16T13:30:39;21.80;77.20
38936;DHT22;25541;47.458;9.644;2022-10-16T13:33:17;21.70;77.50
38936;DHT22;25541;47.458;9.644;2022-10-16T13:35:56;21.80;78.30
38936;DHT22;25541;47.458;9.644;2022-10-16T13:38:30;21.80;77.60
38936;DHT22;25541;47.458;9.644;2022-10-16T13:41:00;21.80;77.30
38936;DHT22;25541;47.458;9.644;2022-10-16T13:46:13;21.90;78.20
38936;DHT22;25541;47.458;9.644;2022-10-16T13:48:40;21.90;77.70
38936;DHT22;25541;47.458;9.644;2022-10-16T13:53:37;22.10;78.10
38936;DHT22;25541;47.458;9.644;2022-10-16T13:56:06;22.30;81.30
38936;DHT22;25541;47.458;9.644;2022-10-16T13:58:33;22.50;79.40
38936;DHT22;25541;47.458;9.644;2022-10-16T14:03:27;22.20;79.10
38936;DHT22;25541;47.458;9.644;2022-10-16T14:05:56;22.20;78.60
38936;DHT22;25541;47.458;9.644;2022-10-16T14:08:25;22.20;78.90
38936;DHT22;25541;47.458;9.644;2022-10-16T14:10:54;22.10;78.90
38936;DHT22;25541;47.458;9.644;2022-10-16T14:13:39;22.10;78.10
38936;DHT22;25541;47.458;9.644;2022-10-16T14:16:10;22.10;80.60
38936;DHT22;25541;47.458;9.644;2022-10-16T14:18:38;22.10;79.60
38936;DHT22;25541;47.458;9.644;2022-10-16T14:21:13;22.20;78.90
38936;DHT22;25541;47.458;9.644;2022-10-16T14:23:41;22.10;78.20
38936;DHT22;25541;47.458;9.644;2022-10-16T14:28:36;22.30;76.90
38936;DHT22;25541;47.458;9.644;2022-10-16T14:33:45;22.20;75.00
38936;DHT22;25541;47.458;9.644;2022-10-16T14:36:12;22.30;74.80
38936;DHT22;25541;47.458;9.644;2022-10-16T14:38:40;22.40;74.20
38936;DHT22;25541;47.458;9.644;2022-10-16T14:41:07;22.50;72.90
38936;DHT22;25541;47.458;9.644;2022-10-16T14:43:43;22.50;71.40
38936;DHT22;25541;47.458;9.644;2022-10-16T14:46:20;22.50;71.10
38936;DHT22;25541;47.458;9.644;2022-10-16T14:48:49;22.60;70.90
38936;DHT22;25541;47.458;9.644;2022-10-16T14:51:19;22.70;70.40
38936;DHT22;25541;47.458;9.644;2022-10-16T14:53:45;22.60;70.20
38936;DHT22;25541;47.458;9.644;2022-10-16T14:56:19;22.60;70.50
38936;DHT22;25541;47.458;9.644;2022-10-16T14:58:46;22.60;69.70
38936;DHT22;25541;47.458;9.644;2022-10-16T15:01:12;22.50;69.00
38936;DHT22;25541;47.458;9.644;2022-10-16T15:03:38;22.50;68.10
38936;DHT22;25541;47.458;9.644;2022-10-16T15:06:13;22.50;68.40
38936;DHT22;25541;47.458;9.644;2022-10-16T15:08:39;22.50;68.40
38936;DHT22;25541;47.458;9.644;2022-10-16T15:11:05;22.50;67.80
38936;DHT22;25541;47.458;9.644;2022-10-16T15:13:35;22.50;68.10
38936;DHT22;25541;47.458;9.644;2022-10-16T15:16:00;22.40;70.20
38936;DHT22;25541;47.458;9.644;2022-10-16T15:18:26;22.50;74.60
38936;DHT22;25541;47.458;9.644;2022-10-16T15:20:52;22.50;79.80
38936;DHT22;25541;47.458;9.644;2022-10-16T15:23:20;22.20;80.40
38936;DHT22;25541;47.458;9.644;2022-10-16T15:25:56;22.00;82.80
38936;DHT22;25541;47.458;9.644;2022-10-16T15:28:23;21.70;81.60
38936;DHT22;25541;47.458;9.644;2022-10-16T15:30:51;21.60;82.10
38936;DHT22;25541;47.458;9.644;2022-10-16T15:33:23;21.60;81.70
38936;DHT22;25541;47.458;9.644;2022-10-16T15:35:50;21.60;82.10
38936;DHT22;25541;47.458;9.644;2022-10-16T15:38:18;21.40;82.70
38936;DHT22;25541;47.458;9.644;2022-10-16T15:40:46;21.40;82.50
38936;DHT22;25541;47.458;9.644;2022-10-16T15:43:11;21.30;82.80
38936;DHT22;25541;47.458;9.644;2022-10-16T15:45:37;21.20;83.70
38936;DHT22;25541;47.458;9.644;2022-10-16T15:48:03;21.00;84.10
38936;DHT22;25541;47.458;9.644;2022-10-16T15:50:30;20.90;83.50
38936;DHT22;25541;47.458;9.644;2022-10-16T15:52:56;21.00;82.30
38936;DHT22;25541;47.458;9.644;2022-10-16T15:55:22;20.90;81.90
38936;DHT22;25541;47.458;9.644;2022-10-16T15:57:47;20.90;81.40
38936;DHT22;25541;47.458;9.644;2022-10-16T16:00:16;20.70;81.50
38936;DHT22;25541;47.458;9.644;2022-10-16T16:02:44;20.40;82.10
38936;DHT22;25541;47.458;9.644;2022-10-16T16:05:15;20.10;83.20
38936;DHT22;25541;47.458;9.644;2022-10-16T16:07:40;19.90;83.40
38936;DHT22;25541;47.458;9.644;2022-10-16T16:10:08;19.80;84.20
38936;DHT22;25541;47.458;9.644;2022-10-16T16:12:35;19.50;85.00
38936;DHT22;25541;47.458;9.644;2022-10-16T16:15:01;19.30;84.80
38936;DHT22;25541;47.458;9.644;2022-10-16T16:17:26;19.20;84.30
38936;DHT22;25541;47.458;9.644;2022-10-16T16:19:52;19.30;83.90
38936;DHT22;25541;47.458;9.644;2022-10-16T16:22:18;19.30;84.60
38936;DHT22;25541;47.458;9.644;2022-10-16T16:24:43;19.20;85.90
38936;DHT22;25541;47.458;9.644;2022-10-16T16:27:09;19.00;86.10
38936;DHT22;25541;47.458;9.644;2022-10-16T16:29:35;18.70;87.70
38936;DHT22;25541;47.458;9.644;2022-10-16T16:32:01;18.70;86.90
38936;DHT22;25541;47.458;9.644;2022-10-16T16:34:28;18.60;88.50
38936;DHT22;25541;47.458;9.644;2022-10-16T16:36:55;18.50;90.00
38936;DHT22;25541;47.458;9.644;2022-10-16T16:39:21;18.30;90.50
38936;DHT22;25541;47.458;9.644;2022-10-16T16:41:47;18.20;90.30
38936;DHT22;25541;47.458;9.644;2022-10-16T16:44:13;18.30;90.30
38936;DHT22;25541;47.458;9.644;2022-10-16T16:46:40;18.20;90.20
38936;DHT22;25541;47.458;9.644;2022-10-16T16:49:09;18.20;90.20
38936;DHT22;25541;47.458;9.644;2022-10-16T16:51:36;18.10;90.90
38936;DHT22;25541;47.458;9.644;2022-10-16T16:54:02;17.90;91.50
38936;DHT22;25541;47.458;9.644;2022-10-16T16:56:28;17.90;91.10
38936;DHT22;25541;47.458;9.644;2022-10-16T16:58:55;17.70;92.10
38936;DHT22;25541;47.458;9.644;2022-10-16T17:01:23;17.50;93.00
38936;DHT22;25541;47.458;9.644;2022-10-16T17:03:52;17.40;93.30
38936;DHT22;25541;47.458;9.644;2022-10-16T17:06:21;17.50;93.10
38936;DHT22;25541;47.458;9.644;2022-10-16T17:08:47;17.60;93.20
38936;DHT22;25541;47.458;9.644;2022-10-16T17:11:18;17.40;93.90
38936;DHT22;25541;47.458;9.644;2022-10-16T17:13:45;17.40;94.30
38936;DHT22;25541;47.458;9.644;2022-10-16T17:16:11;17.50;93.90
38936;DHT22;25541;47.458;9.644;2022-10-16T17:18:36;17.40;94.80
38936;DHT22;25541;47.458;9.644;2022-10-16T17:21:04;17.10;95.60
38936;DHT22;25541;47.458;9.644;2022-10-16T17:23:31;17.00;95.70
38936;DHT22;25541;47.458;9.644;2022-10-16T17:25:59;16.90;97.20
38936;DHT22;25541;47.458;9.644;2022-10-16T17:28:27;16.70;98.70
38936;DHT22;25541;47.458;9.644;2022-10-16T17:30:53;16.70;98.10
38936;DHT22;25541;47.458;9.644;2022-10-16T17:33:19;16.90;98.20
38936;DHT22;25541;47.458;9.644;2022-10-16T17:35:46;17.00;97.70
38936;DHT22;25541;47.458;9.644;2022-10-16T17:38:13;17.00;97.40
38936;DHT22;25541;47.458;9.644;2022-10-16T17:40:41;17.00;98.30
38936;DHT22;25541;47.458;9.644;2022-10-16T17:43:08;16.80;98.20
38936;DHT22;25541;47.458;9.644;2022-10-16T17:45:36;16.70;99.30
38936;DHT22;25541;47.458;9.644;2022-10-16T17:48:02;16.60;99.60
38936;DHT22;25541;47.458;9.644;2022-10-16T17:50:28;16.60;99.90
38936;DHT22;25541;47.458;9.644;2022-10-16T17:52:54;16.50;99.90
38936;DHT22;25541;47.458;9.644;2022-10-16T17:55:19;16.40;99.90
38936;DHT22;25541;47.458;9.644;2022-10-16T17:57:45;16.30;99.90
38936;DHT22;25541;47.458;9.644;2022-10-16T18:00:11;16.00;99.90
38936;DHT22;25541;47.458;9.644;2022-10-16T18:02:37;16.20;99.90
38936;DHT22;25541;47.458;9.644;2022-10-16T18:05:09;16.30;99.90
38936;DHT22;25541;47.458;9.644;2022-10-16T18:07:36;16.30;99.90
38936;DHT22;25541;47.458;9.644;2022-10-16T18:10:02;16.20;99.90
38936;DHT22;25541;47.458;9.644;2022-10-16T18:12:31;16.20;99.90
38936;DHT22;25541;47.458;9.644;2022-10-16T18:14:57;16.20;99.90
38936;DHT22;25541;47.458;9.644;2022-10-16T18:17:23;16.00;99.90
38936;DHT22;25541;47.458;9.644;2022-10-16T18:19:49;16.00;99.90
38936;DHT22;25541;47.458;9.644;2022-10-16T18:22:15;16.00;99.90
38936;DHT22;25541;47.458;9.644;2022-10-16T18:24:41;16.10;99.90
38936;DHT22;25541;47.458;9.644;2022-10-16T18:27:06;16.10;99.90
38936;DHT22;25541;47.458;9.644;2022-10-16T18:29:32;16.10;99.90
38936;DHT22;25541;47.458;9.644;2022-10-16T18:31:58;16.20;99.90
38936;DHT22;25541;47.458;9.644;2022-10-16T18:34:23;16.20;99.90
38936;DHT22;25541;47.458;9.644;2022-10-16T18:36:51;16.20;99.90
38936;DHT22;25541;47.458;9.644;2022-10-16T18:39:17;16.10;99.90
38936;DHT22;25541;47.458;9.644;2022-10-16T18:41:43;16.00;99.90
38936;DHT22;25541;47.458;9.644;2022-10-16T18:44:12;15.90;99.90
38936;DHT22;25541;47.458;9.644;2022-10-16T18:46:39;15.60;99.90
38936;DHT22;25541;47.458;9.644;2022-10-16T18:49:05;15.40;99.90
38936;DHT22;25541;47.458;9.644;2022-10-16T18:51:34;15.20;99.90
38936;DHT22;25541;47.458;9.644;2022-10-16T18:54:02;15.20;99.90
38936;DHT22;25541;47.458;9.644;2022-10-16T18:56:29;15.40;99.90
38936;DHT22;25541;47.458;9.644;2022-10-16T18:58:58;15.50;99.90
38936;DHT22;25541;47.458;9.644;2022-10-16T19:01:26;15.70;99.90
38936;DHT22;25541;47.458;9.644;2022-10-16T19:03:57;15.80;99.90
38936;DHT22;25541;47.458;9.644;2022-10-16T19:06:24;15.90;99.90
38936;DHT22;25541;47.458;9.644;2022-10-16T19:08:49;16.10;99.90
38936;DHT22;25541;47.458;9.644;2022-10-16T19:11:19;16.20;99.90
38936;DHT22;25541;47.458;9.644;2022-10-16T19:13:46;16.10;99.90
38936;DHT22;25541;47.458;9.644;2022-10-16T19:16:18;16.00;99.90
38936;DHT22;25541;47.458;9.644;2022-10-16T19:18:44;15.90;99.90
38936;DHT22;25541;47.458;9.644;2022-10-16T19:21:11;15.80;99.90
38936;DHT22;25541;47.458;9.644;2022-10-16T19:23:38;15.70;99.90
38936;DHT22;25541;47.458;9.644;2022-10-16T19:26:07;15.80;99.90
38936;DHT22;25541;47.458;9.644;2022-10-16T19:28:34;15.80;99.90
38936;DHT22;25541;47.458;9.644;2022-10-16T19:31:01;15.80;99.90
38936;DHT22;25541;47.458;9.644;2022-10-16T19:33:27;15.80;99.90
38936;DHT22;25541;47.458;9.644;2022-10-16T19:35:53;15.70;99.90
38936;DHT22;25541;47.458;9.644;2022-10-16T19:38:18;15.60;99.90
38936;DHT22;25541;47.458;9.644;2022-10-16T19:40:44;15.60;99.90
38936;DHT22;25541;47.458;9.644;2022-10-16T19:43:10;15.50;99.90
38936;DHT22;25541;47.458;9.644;2022-10-16T19:45:35;15.60;99.90
38936;DHT22;25541;47.458;9.644;2022-10-16T19:48:01;15.60;99.90
38936;DHT22;25541;47.458;9.644;2022-10-16T19:50:27;15.50;99.90
38936;DHT22;25541;47.458;9.644;2022-10-16T19:52:53;15.40;99.90
38936;DHT22;25541;47.458;9.644;2022-10-16T19:55:19;15.20;99.90
38936;DHT22;25541;47.458;9.644;2022-10-16T19:57:45;15.10;99.90
38936;DHT22;25541;47.458;9.644;2022-10-16T20:00:11;15.10;99.90
38936;DHT22;25541;47.458;9.644;2022-10-16T20:02:36;15.10;99.90
38936;DHT22;25541;47.458;9.644;2022-10-16T20:05:02;15.10;99.90
38936;DHT22;25541;47.458;9.644;2022-10-16T20:07:28;15.10;99.90
38936;DHT22;25541;47.458;9.644;2022-10-16T20:09:54;15.00;99.90
38936;DHT22;25541;47.458;9.644;2022-10-16T20:12:19;15.00;99.90
38936;DHT22;25541;47.458;9.644;2022-10-16T20:14:45;15.00;99.90
38936;DHT22;25541;47.458;9.644;2022-10-16T20:17:11;15.10;99.90
38936;DHT22;25541;47.458;9.644;2022-10-16T20:19:37;15.00;99.90
38936;DHT22;25541;47.458;9.644;2022-10-16T20:22:04;15.00;99.90
38936;DHT22;25541;47.458;9.644;2022-10-16T20:24:30;14.90;99.90
38936;DHT22;25541;47.458;9.644;2022-10-16T20:26:55;14.70;99.90
38936;DHT22;25541;47.458;9.644;2022-10-16T20:29:22;14.80;99.90
38936;DHT22;25541;47.458;9.644;2022-10-16T20:31:47;14.80;99.90
38936;DHT22;25541;47.458;9.644;2022-10-16T20:34:13;14.80;99.90
38936;DHT22;25541;47.458;9.644;2022-10-16T20:36:40;14.80;99.90
38936;DHT22;25541;47.458;9.644;2022-10-16T20:39:07;14.80;99.90
38936;DHT22;25541;47.458;9.644;2022-10-16T20:41:34;14.70;99.90
38936;DHT22;25541;47.458;9.644;2022-10-16T20:44:00;14.80;99.90
38936;DHT22;25541;47.458;9.644;2022-10-16T20:46:27;14.70;99.90
38936;DHT22;25541;47.458;9.644;2022-10-16T20:48:55;14.80;99.90
38936;DHT22;25541;47.458;9.644;2022-10-16T20:51:29;14.70;99.90
38936;DHT22;25541;47.458;9.644;2022-10-16T20:54:00;14.70;99.90
38936;DHT22;25541;47.458;9.644;2022-10-16T20:56:29;14.80;99.90
38936;DHT22;25541;47.458;9.644;2022-10-16T20:58:56;14.70;99.90
38936;DHT22;25541;47.458;9.644;2022-10-16T21:01:26;14.70;99.90
38936;DHT22;25541;47.458;9.644;2022-10-16T21:03:55;14.70;99.90
38936;DHT22;25541;47.458;9.644;2022-10-16T21:06:21;14.70;99.90
38936;DHT22;25541;47.458;9.644;2022-10-16T21:08:47;14.70;99.90
38936;DHT22;25541;47.458;9.644;2022-10-16T21:11:16;14.70;99.90
38936;DHT22;25541;47.458;9.644;2022-10-16T21:13:42;14.60;99.90
38936;DHT22;25541;47.458;9.644;2022-10-16T21:16:09;14.50;99.90
38936;DHT22;25541;47.458;9.644;2022-10-16T21:18:35;14.40;99.90
38936;DHT22;25541;47.458;9.644;2022-10-16T21:21:01;14.30;99.90
38936;DHT22;25541;47.458;9.644;2022-10-16T21:23:27;14.20;99.90
38936;DHT22;25541;47.458;9.644;2022-10-16T21:25:53;14.10;99.90
38936;DHT22;25541;47.458;9.644;2022-10-16T21:28:18;14.20;99.90